createdAt,value
2023-05-09T00:00:04.564Z,8.70
2023-05-09T00:02:55.218Z,8.73
2023-05-09T00:05:26.868Z,8.75
2023-05-09T00:08:01.232Z,8.78
2023-05-09T00:10:44.718Z,8.78
2023-05-09T00:13:26.137Z,8.80
2023-05-09T00:15:57.666Z,8.82
2023-05-09T00:18:31.400Z,8.84
2023-05-09T00:21:03.702Z,8.86
2023-05-09T00:23:41.932Z,8.85
2023-05-09T00:26:17.935Z,8.84
2023-05-09T00:29:01.910Z,8.83
2023-05-09T00:31:36.809Z,8.81
2023-05-09T00:34:11.497Z,8.77
2023-05-09T00:36:41.974Z,8.76
2023-05-09T00:39:11.703Z,8.73
2023-05-09T00:41:48.306Z,8.72
2023-05-09T00:44:26.256Z,8.72
2023-05-09T00:47:01.799Z,8.70
2023-05-09T00:49:48.512Z,8.69
2023-05-09T00:52:29.369Z,8.68
2023-05-09T00:54:58.049Z,8.64
2023-05-09T00:57:33.875Z,8.59
2023-05-09T01:00:04.635Z,8.54
2023-05-09T01:02:41.728Z,8.50
2023-05-09T01:05:12.669Z,8.46
2023-05-09T01:08:10.902Z,8.42
2023-05-09T01:10:48.714Z,8.39
2023-05-09T01:13:38.238Z,8.36
2023-05-09T01:16:16.686Z,8.34
2023-05-09T01:19:20.236Z,8.33
2023-05-09T01:21:52.728Z,8.30
2023-05-09T01:24:36.472Z,8.26
2023-05-09T01:27:24.924Z,8.22
2023-05-09T01:30:06.268Z,8.19
2023-05-09T01:32:50.884Z,8.16
2023-05-09T01:35:26.372Z,8.15
2023-05-09T01:38:02.627Z,8.11
2023-05-09T01:40:42.668Z,8.10
2023-05-09T01:43:16.543Z,8.08
2023-05-09T01:45:45.717Z,8.05
2023-05-09T01:48:17.351Z,8.05
2023-05-09T01:50:51.886Z,8.03
2023-05-09T01:53:34.443Z,8.01
2023-05-09T01:56:13.343Z,7.99
2023-05-09T01:58:55.896Z,7.96
2023-05-09T02:01:27.523Z,7.95
2023-05-09T02:04:06.200Z,7.94
2023-05-09T02:06:54.742Z,7.92
2023-05-09T02:09:27.586Z,7.90
2023-05-09T02:11:57.878Z,7.88
2023-05-09T02:14:36.423Z,7.85
2023-05-09T02:17:07.151Z,7.83
2023-05-09T02:19:54.169Z,7.81
2023-05-09T02:22:35.852Z,7.79
2023-05-09T02:25:19.371Z,7.78
2023-05-09T02:31:08.221Z,7.78
2023-05-09T02:33:47.016Z,7.77
2023-05-09T02:36:35.520Z,7.76
2023-05-09T02:39:26.727Z,7.74
2023-05-09T02:42:37.969Z,7.72
2023-05-09T02:45:26.883Z,7.72
2023-05-09T02:47:58.185Z,7.69
2023-05-09T02:50:30.391Z,7.68
2023-05-09T02:53:00.491Z,7.66
2023-05-09T02:55:34.729Z,7.66
2023-05-09T02:58:14.218Z,7.67
2023-05-09T03:00:47.866Z,7.68
2023-05-09T03:03:19.060Z,7.71
2023-05-09T03:05:52.548Z,7.75
2023-05-09T03:08:20.667Z,7.79
2023-05-09T03:10:51.219Z,7.82
2023-05-09T03:13:23.974Z,7.88
2023-05-09T03:15:52.196Z,7.93
2023-05-09T03:18:21.275Z,7.98
2023-05-09T03:20:58.400Z,8.01
2023-05-09T03:23:30.602Z,8.06
2023-05-09T03:26:20.939Z,8.12
2023-05-09T03:28:55.963Z,8.19
2023-05-09T03:31:53.003Z,8.27
2023-05-09T03:34:23.947Z,8.44
2023-05-09T03:37:01.848Z,8.48
2023-05-09T03:39:36.975Z,8.47
2023-05-09T03:42:08.270Z,8.51
2023-05-09T03:45:00.667Z,8.57
2023-05-09T03:47:43.357Z,8.58
2023-05-09T03:50:22.235Z,8.69
2023-05-09T03:53:24.122Z,9.11
2023-05-09T03:56:02.038Z,9.70
2023-05-09T03:58:42.599Z,10.18
2023-05-09T04:01:43.198Z,10.39
2023-05-09T04:04:14.074Z,10.32
2023-05-09T04:06:47.683Z,10.34
2023-05-09T04:09:27.483Z,10.57
2023-05-09T04:12:00.698Z,10.92
2023-05-09T04:14:33.363Z,11.23
2023-05-09T04:17:13.067Z,10.90
2023-05-09T04:20:08.852Z,10.47
2023-05-09T04:22:51.318Z,10.25
2023-05-09T04:25:22.380Z,10.08
2023-05-09T04:27:55.782Z,9.96
2023-05-09T04:30:30.163Z,9.84
2023-05-09T04:33:20.266Z,9.76
2023-05-09T04:39:13.453Z,9.70
2023-05-09T04:41:51.498Z,9.63
2023-05-09T04:44:25.818Z,9.61
2023-05-09T04:49:45.218Z,9.67
2023-05-09T04:52:29.932Z,9.63
2023-05-09T04:55:46.676Z,9.87
2023-05-09T05:02:36.093Z,10.45
2023-05-09T05:05:43.326Z,10.46
2023-05-09T05:08:32.238Z,10.50
2023-05-09T05:11:11.459Z,10.43
2023-05-09T05:13:45.593Z,10.42
2023-05-09T05:16:13.954Z,10.45
2023-05-09T05:18:43.101Z,10.42
2023-05-09T05:21:16.702Z,10.35
2023-05-09T05:23:59.983Z,10.31
2023-05-09T05:26:39.992Z,10.39
2023-05-09T05:29:11.235Z,10.43
2023-05-09T05:31:46.805Z,10.46
2023-05-09T05:34:20.558Z,10.50
2023-05-09T05:37:14.544Z,10.55
2023-05-09T05:39:43.422Z,10.58
2023-05-09T05:43:49.618Z,10.64
2023-05-09T05:45:04.643Z,10.72
2023-05-09T05:47:34.198Z,10.83
2023-05-09T05:50:03.649Z,10.93
2023-05-09T05:52:32.074Z,11.03
2023-05-09T05:55:01.851Z,11.12
2023-05-09T05:57:29.992Z,11.18
2023-05-09T05:59:58.345Z,11.28
2023-05-09T06:02:26.933Z,11.39
2023-05-09T06:04:56.145Z,11.50
2023-05-09T06:07:25.133Z,11.56
2023-05-09T06:09:53.323Z,11.69
2023-05-09T06:12:21.094Z,11.83
2023-05-09T06:14:48.906Z,11.95
2023-05-09T06:17:17.007Z,12.20
2023-05-09T06:19:45.422Z,12.48
2023-05-09T06:22:13.270Z,12.57
2023-05-09T06:24:41.246Z,12.69
2023-05-09T06:27:09.141Z,12.68
2023-05-09T06:29:37.008Z,12.74
2023-05-09T06:32:05.029Z,13.03
2023-05-09T06:34:32.922Z,13.29
2023-05-09T06:37:00.832Z,13.32
2023-05-09T06:39:28.733Z,13.50
2023-05-09T06:41:56.522Z,13.77
2023-05-09T06:44:32.754Z,13.86
2023-05-09T06:47:01.580Z,14.05
2023-05-09T06:49:29.343Z,14.12
2023-05-09T06:51:57.303Z,14.01
2023-05-09T06:54:25.211Z,14.01
2023-05-09T06:56:53.215Z,14.18
2023-05-09T06:59:21.187Z,14.15
2023-05-09T07:01:49.002Z,14.10
2023-05-09T07:04:17.041Z,14.16
2023-05-09T07:06:45.005Z,14.28
2023-05-09T07:09:15.412Z,14.36
2023-05-09T07:11:43.296Z,14.35
2023-05-09T07:14:11.097Z,14.26
2023-05-09T07:16:38.965Z,14.26
2023-05-09T07:19:06.822Z,14.38
2023-05-09T07:21:34.742Z,14.46
2023-05-09T07:24:02.839Z,14.56
2023-05-09T07:26:30.772Z,14.67
2023-05-09T07:28:58.461Z,14.79
2023-05-09T07:31:26.317Z,15.00
2023-05-09T07:33:54.321Z,15.33
2023-05-09T07:36:22.477Z,15.70
2023-05-09T07:38:54.666Z,15.88
2023-05-09T07:41:22.728Z,16.10
2023-05-09T07:43:50.653Z,16.39
2023-05-09T07:46:18.568Z,16.70
2023-05-09T07:48:46.637Z,17.13
2023-05-09T07:51:14.699Z,17.49
2023-05-09T07:53:42.801Z,17.73
2023-05-09T07:56:10.809Z,17.91
2023-05-09T07:58:38.802Z,18.18
2023-05-09T08:01:06.875Z,18.43
2023-05-09T08:03:34.966Z,18.40
2023-05-09T08:06:03.272Z,18.35
2023-05-09T08:08:31.210Z,18.41
2023-05-09T08:10:59.245Z,18.45
2023-05-09T08:13:27.315Z,18.49
2023-05-09T08:15:55.640Z,18.40
2023-05-09T08:18:23.823Z,18.18
2023-05-09T08:20:51.758Z,18.07
2023-05-09T08:23:19.854Z,17.99
2023-05-09T08:25:47.813Z,17.91
2023-05-09T08:28:15.708Z,17.71
2023-05-09T08:30:43.445Z,17.57
2023-05-09T08:33:11.207Z,17.45
2023-05-09T08:35:39.085Z,17.09
2023-05-09T08:38:08.298Z,16.96
2023-05-09T08:40:37.754Z,16.98
2023-05-09T08:43:06.658Z,17.03
2023-05-09T08:45:36.048Z,17.09
2023-05-09T08:48:03.924Z,17.15
2023-05-09T08:50:31.854Z,17.18
2023-05-09T08:52:59.940Z,17.18
2023-05-09T08:55:28.600Z,17.26
2023-05-09T08:57:59.118Z,17.14
2023-05-09T09:00:27.643Z,17.09
2023-05-09T09:02:56.903Z,17.19
2023-05-09T09:05:40.161Z,17.28
2023-05-09T09:08:10.075Z,17.27
2023-05-09T09:10:40.054Z,17.30
2023-05-09T09:13:10.307Z,17.42
2023-05-09T09:15:38.781Z,17.55
2023-05-09T09:18:09.159Z,17.75
2023-05-09T09:20:40.763Z,17.93
2023-05-09T09:23:12.695Z,18.11
2023-05-09T09:25:40.576Z,18.31
2023-05-09T09:28:08.420Z,18.51
2023-05-09T09:30:43.468Z,18.66
2023-05-09T09:33:18.607Z,18.80
2023-05-09T09:35:47.752Z,18.93
2023-05-09T09:38:16.849Z,19.02
2023-05-09T09:40:55.528Z,19.07
2023-05-09T09:43:30.471Z,19.17
2023-05-09T09:46:02.463Z,19.28
2023-05-09T09:48:34.778Z,19.33
2023-05-09T09:51:09.226Z,19.34
2023-05-09T09:53:40.779Z,19.57
2023-05-09T09:56:09.505Z,19.94
2023-05-09T09:58:37.563Z,20.00
2023-05-09T10:01:09.700Z,20.02
2023-05-09T10:03:39.087Z,20.14
2023-05-09T10:06:11.043Z,20.21
2023-05-09T10:08:39.562Z,19.84
2023-05-09T10:11:07.438Z,19.49
2023-05-09T10:13:36.678Z,19.29
2023-05-09T10:16:05.717Z,18.58
2023-05-09T10:18:34.618Z,17.74
2023-05-09T10:21:06.860Z,17.41
2023-05-09T10:23:37.555Z,17.43
2023-05-09T10:26:11.739Z,17.55
2023-05-09T10:28:42.208Z,17.77
2023-05-09T10:31:09.956Z,17.94
2023-05-09T10:33:42.575Z,18.10
2023-05-09T10:36:11.785Z,18.26
2023-05-09T10:38:39.933Z,18.48
2023-05-09T10:41:08.450Z,18.67
2023-05-09T10:43:39.548Z,18.86
2023-05-09T10:46:09.796Z,19.03
2023-05-09T10:48:42.209Z,19.18
2023-05-09T10:51:10.689Z,19.37
2023-05-09T10:53:46.031Z,19.53
2023-05-09T10:56:32.176Z,19.38
2023-05-09T10:59:00.431Z,19.22
2023-05-09T11:01:37.542Z,19.15
2023-05-09T11:04:11.251Z,19.27
2023-05-09T11:06:46.400Z,19.49
2023-05-09T11:09:28.577Z,19.73
2023-05-09T11:12:01.808Z,20.19
2023-05-09T11:14:36.013Z,20.47
2023-05-09T11:17:04.766Z,20.54
2023-05-09T11:19:58.776Z,20.52
2023-05-09T11:22:28.291Z,20.63
2023-05-09T11:25:00.782Z,20.77
2023-05-09T11:27:29.359Z,20.77
2023-05-09T11:29:58.853Z,20.68
2023-05-09T11:32:41.124Z,20.72
2023-05-09T11:35:15.076Z,20.83
2023-05-09T11:37:55.395Z,20.94
2023-05-09T11:40:23.865Z,21.24
2023-05-09T11:42:58.441Z,21.50
2023-05-09T11:45:28.582Z,21.58
2023-05-09T11:47:57.446Z,21.31
2023-05-09T11:50:25.813Z,21.24
2023-05-09T11:52:54.166Z,21.28
2023-05-09T11:55:23.092Z,21.32
2023-05-09T11:57:55.927Z,21.19
2023-05-09T12:00:25.344Z,21.10
2023-05-09T12:02:53.611Z,21.05
2023-05-09T12:05:22.978Z,20.90
2023-05-09T12:07:52.415Z,20.80
2023-05-09T12:10:22.014Z,20.69
2023-05-09T12:12:51.406Z,20.54
2023-05-09T12:15:19.837Z,20.42
2023-05-09T12:17:51.322Z,20.14
2023-05-09T12:20:19.772Z,19.43
2023-05-09T12:22:52.682Z,18.87
2023-05-09T12:25:20.476Z,18.75
2023-05-09T12:27:49.312Z,18.73
2023-05-09T12:30:18.699Z,18.75
2023-05-09T12:32:46.826Z,18.74
2023-05-09T12:35:16.578Z,18.78
2023-05-09T12:37:54.875Z,18.82
2023-05-09T12:40:22.989Z,18.81
2023-05-09T12:42:53.775Z,18.73
2023-05-09T12:45:22.651Z,18.76
2023-05-09T12:47:53.737Z,18.82
2023-05-09T12:50:21.758Z,18.82
2023-05-09T12:53:01.921Z,18.79
2023-05-09T12:55:32.023Z,18.79
2023-05-09T12:58:01.757Z,18.75
2023-05-09T13:00:41.456Z,18.69
2023-05-09T13:03:26.036Z,18.45
2023-05-09T13:05:54.471Z,18.16
2023-05-09T13:08:22.268Z,17.98
2023-05-09T13:10:51.100Z,18.03
2023-05-09T13:13:26.519Z,18.09
2023-05-09T13:15:54.653Z,18.15
2023-05-09T13:18:24.209Z,18.27
2023-05-09T13:20:53.148Z,18.40
2023-05-09T13:23:22.347Z,18.55
2023-05-09T13:25:50.347Z,18.71
2023-05-09T13:28:18.338Z,18.86
2023-05-09T13:30:46.279Z,18.95
2023-05-09T13:33:25.362Z,19.00
2023-05-09T13:35:54.409Z,19.08
2023-05-09T13:38:22.438Z,19.21
2023-05-09T13:40:50.543Z,19.37
2023-05-09T13:43:18.546Z,19.59
2023-05-09T13:45:46.625Z,19.69
2023-05-09T13:48:14.710Z,19.72
2023-05-09T13:50:42.685Z,19.68
2023-05-09T13:53:10.763Z,19.57
2023-05-09T13:55:38.724Z,19.36
2023-05-09T13:58:06.909Z,18.94
2023-05-09T14:00:35.571Z,18.72
2023-05-09T14:03:03.542Z,18.65
2023-05-09T14:05:32.146Z,18.63
2023-05-09T14:08:01.735Z,18.63
2023-05-09T14:10:29.881Z,18.72
2023-05-09T14:13:00.983Z,18.76
2023-05-09T14:15:29.885Z,18.57
2023-05-09T14:17:58.029Z,18.36
2023-05-09T14:20:25.790Z,18.21
2023-05-09T14:22:55.343Z,18.09
2023-05-09T14:25:23.270Z,17.98
2023-05-09T14:27:54.556Z,17.84
2023-05-09T14:30:23.054Z,17.65
2023-05-09T14:32:51.144Z,17.57
2023-05-09T14:35:22.117Z,17.86
2023-05-09T14:37:50.177Z,18.16
2023-05-09T14:40:23.575Z,18.27
2023-05-09T14:42:51.700Z,18.36
2023-05-09T14:45:19.595Z,18.27
2023-05-09T14:47:48.209Z,18.05
2023-05-09T14:50:21.996Z,17.88
2023-05-09T14:53:01.115Z,17.73
2023-05-09T14:55:31.522Z,17.69
2023-05-09T14:57:59.541Z,17.82
2023-05-09T15:00:28.608Z,18.00
2023-05-09T15:02:57.856Z,18.13
2023-05-09T15:05:29.023Z,18.22
2023-05-09T15:07:58.674Z,18.29
2023-05-09T15:10:34.008Z,18.33
2023-05-09T15:13:09.376Z,18.28
2023-05-09T15:15:40.696Z,18.34
2023-05-09T15:18:13.369Z,18.47
2023-05-09T15:20:41.445Z,18.65
2023-05-09T15:23:10.936Z,18.79
2023-05-09T15:25:40.765Z,18.76
2023-05-09T15:28:08.748Z,18.46
2023-05-09T15:30:40.430Z,18.27
2023-05-09T15:33:13.366Z,18.19
2023-05-09T15:35:41.605Z,18.07
2023-05-09T15:38:12.165Z,17.92
2023-05-09T15:40:45.288Z,17.75
2023-05-09T15:43:13.710Z,17.63
2023-05-09T15:45:45.776Z,17.49
2023-05-09T15:48:16.085Z,17.38
2023-05-09T15:50:44.837Z,17.27
2023-05-09T15:53:16.162Z,17.16
2023-05-09T15:55:44.894Z,17.01
2023-05-09T15:58:15.528Z,16.88
2023-05-09T16:00:44.198Z,16.79
2023-05-09T16:03:12.623Z,16.73
2023-05-09T16:05:42.511Z,16.68
2023-05-09T16:08:10.904Z,16.64
2023-05-09T16:10:38.785Z,16.59
2023-05-09T16:13:07.370Z,16.55
2023-05-09T16:15:37.047Z,16.53
2023-05-09T16:18:07.572Z,16.49
2023-05-09T16:20:35.617Z,16.45
2023-05-09T16:23:03.701Z,16.41
2023-05-09T16:25:33.896Z,16.36
2023-05-09T16:28:03.270Z,16.29
2023-05-09T16:30:31.200Z,16.24
2023-05-09T16:32:59.189Z,16.16
2023-05-09T16:35:27.230Z,16.07
2023-05-09T16:37:55.213Z,15.99
2023-05-09T16:40:24.391Z,15.91
2023-05-09T16:42:54.104Z,15.82
2023-05-09T16:45:23.969Z,15.74
2023-05-09T16:47:52.012Z,15.67
2023-05-09T16:50:19.895Z,15.64
2023-05-09T16:52:48.115Z,15.70
2023-05-09T16:55:16.447Z,15.77
2023-05-09T16:57:44.330Z,15.81
2023-05-09T17:00:12.570Z,15.86
2023-05-09T17:02:40.505Z,15.90
2023-05-09T17:05:08.792Z,15.92
2023-05-09T17:07:36.718Z,15.93
2023-05-09T17:10:04.746Z,15.93
2023-05-09T17:12:35.356Z,15.94
2023-05-09T17:15:03.513Z,15.92
2023-05-09T17:17:31.372Z,15.89
2023-05-09T17:20:03.090Z,15.84
2023-05-09T17:22:31.006Z,15.79
2023-05-09T17:24:59.237Z,15.74
2023-05-09T17:27:31.907Z,15.67
2023-05-09T17:30:02.272Z,15.59
2023-05-09T17:32:30.490Z,15.51
2023-05-09T17:34:58.434Z,15.39
2023-05-09T17:37:26.478Z,15.26
2023-05-09T17:39:54.351Z,15.15
2023-05-09T17:42:22.149Z,15.03
2023-05-09T17:44:50.975Z,14.89
2023-05-09T17:47:22.253Z,14.75
2023-05-09T17:49:52.143Z,14.62
2023-05-09T17:52:23.016Z,14.47
2023-05-09T17:54:50.912Z,14.32
2023-05-09T17:57:25.513Z,14.17
2023-05-09T17:59:55.022Z,14.04
2023-05-09T18:02:24.189Z,13.93
2023-05-09T18:04:53.984Z,13.83
2023-05-09T18:07:21.998Z,13.77
2023-05-09T18:09:49.953Z,13.71
2023-05-09T18:12:17.905Z,13.69
2023-05-09T18:14:46.067Z,13.65
2023-05-09T18:17:13.991Z,13.62
2023-05-09T18:19:42.561Z,13.58
2023-05-09T18:22:14.441Z,13.54
2023-05-09T18:24:42.437Z,13.49
2023-05-09T18:27:10.529Z,13.45
2023-05-09T18:29:38.600Z,13.40
2023-05-09T18:32:07.017Z,13.34
2023-05-09T18:34:55.147Z,13.28
2023-05-09T18:37:33.221Z,13.20
2023-05-09T18:40:02.714Z,13.13
2023-05-09T18:42:49.123Z,13.04
2023-05-09T18:50:17.600Z,12.80
2023-05-09T18:52:47.239Z,12.71
2023-05-09T18:55:57.588Z,12.66
2023-05-09T18:58:46.643Z,12.60
2023-05-09T19:01:14.747Z,12.54
2023-05-09T19:03:56.950Z,12.49
2023-05-09T19:06:29.611Z,12.43
2023-05-09T19:08:57.710Z,12.38
2023-05-09T19:11:25.851Z,12.34
2023-05-09T19:13:56.620Z,12.28
2023-05-09T19:16:26.823Z,12.23
2023-05-09T19:18:56.294Z,12.19
2023-05-09T19:21:30.737Z,12.12
2023-05-09T19:23:58.633Z,12.05
2023-05-09T19:26:26.474Z,11.99
2023-05-09T19:28:54.453Z,11.92
2023-05-09T19:31:25.810Z,11.87
2023-05-09T19:33:59.996Z,11.83
2023-05-09T19:36:27.988Z,11.80
2023-05-09T19:39:14.374Z,11.78
2023-05-09T19:41:42.565Z,11.79
2023-05-09T19:44:10.542Z,11.77
2023-05-09T19:46:43.134Z,11.76
2023-05-09T19:49:12.381Z,11.75
2023-05-09T19:51:43.483Z,11.74
2023-05-09T19:54:14.099Z,11.73
2023-05-09T19:56:43.640Z,11.72
2023-05-09T19:59:14.086Z,11.72
2023-05-09T20:01:42.573Z,11.71
2023-05-09T20:04:17.244Z,11.70
2023-05-09T20:06:48.770Z,11.72
2023-05-09T20:09:20.939Z,11.68
2023-05-09T20:11:49.094Z,11.64
2023-05-09T20:14:17.445Z,11.63
2023-05-09T20:16:45.582Z,11.62
2023-05-09T20:19:20.152Z,11.61
2023-05-09T20:21:50.911Z,11.59
2023-05-09T20:24:19.093Z,11.57
2023-05-09T20:26:47.127Z,11.55
2023-05-09T20:29:15.574Z,11.52
2023-05-09T20:31:47.893Z,11.48
2023-05-09T20:34:20.114Z,11.44
2023-05-09T20:36:52.059Z,11.41
2023-05-09T20:39:23.743Z,11.38
2023-05-09T20:41:52.217Z,11.36
2023-05-09T20:44:20.655Z,11.32
2023-05-09T20:46:48.697Z,11.29
2023-05-09T20:49:16.815Z,11.27
2023-05-09T20:51:55.236Z,11.26
2023-05-09T20:54:24.275Z,11.23
2023-05-09T20:56:56.970Z,11.20
2023-05-09T20:59:25.055Z,11.17
2023-05-09T21:01:55.629Z,11.13
2023-05-09T21:04:23.963Z,11.09
2023-05-09T21:06:52.086Z,11.06
2023-05-09T21:09:20.311Z,11.03
2023-05-09T21:11:48.363Z,11.01
2023-05-09T21:14:16.504Z,10.98
2023-05-09T21:16:44.573Z,10.94
2023-05-09T21:19:12.764Z,10.90
2023-05-09T21:21:41.336Z,10.85
2023-05-09T21:24:16.012Z,10.81
2023-05-09T21:26:44.256Z,10.77
2023-05-09T21:29:14.820Z,10.71
2023-05-09T21:31:47.317Z,10.68
2023-05-09T21:34:16.075Z,10.64
2023-05-09T21:36:51.540Z,10.62
2023-05-09T21:39:22.575Z,10.60
2023-05-09T21:41:50.689Z,10.57
2023-05-09T21:44:22.004Z,10.55
2023-05-09T21:46:59.866Z,10.53
2023-05-09T21:49:46.082Z,10.53
2023-05-09T21:52:27.127Z,10.54
2023-05-09T21:55:00.872Z,10.55
2023-05-09T21:57:31.424Z,10.56
2023-05-09T22:00:02.641Z,10.57
2023-05-09T22:02:37.424Z,10.57
2023-05-09T22:05:08.217Z,10.57
2023-05-09T22:07:36.521Z,10.56
2023-05-09T22:10:17.028Z,10.56
2023-05-09T22:12:46.241Z,10.57
2023-05-09T22:15:21.688Z,10.59
2023-05-09T22:17:49.764Z,10.62
2023-05-09T22:20:18.757Z,10.63
2023-05-09T22:22:47.246Z,10.64
2023-05-09T22:25:15.688Z,10.65
2023-05-09T22:27:43.763Z,10.66
2023-05-09T22:30:12.672Z,10.67
2023-05-09T22:32:43.287Z,10.68
2023-05-09T22:35:11.418Z,10.69
2023-05-09T22:37:41.458Z,10.71
2023-05-09T22:40:09.841Z,10.70
2023-05-09T22:42:39.382Z,10.70
2023-05-09T22:45:07.788Z,10.70
2023-05-09T22:47:36.605Z,10.70
2023-05-09T22:50:04.986Z,10.67
2023-05-09T22:52:33.002Z,10.65
2023-05-09T22:55:01.113Z,10.63
2023-05-09T22:57:29.320Z,10.61
2023-05-09T22:59:57.396Z,10.58
2023-05-09T23:02:25.954Z,10.56
2023-05-09T23:04:53.962Z,10.53
2023-05-09T23:07:22.197Z,10.50
2023-05-09T23:09:50.919Z,10.46
2023-05-09T23:12:19.765Z,10.39
2023-05-09T23:14:47.880Z,10.34
2023-05-09T23:17:16.345Z,10.27
2023-05-09T23:19:46.934Z,10.21
2023-05-09T23:22:17.617Z,10.16
2023-05-09T23:24:45.719Z,10.12
2023-05-09T23:27:16.201Z,10.09
2023-05-09T23:29:44.801Z,10.09
2023-05-09T23:32:14.413Z,10.10
2023-05-09T23:34:45.179Z,10.12
2023-05-09T23:37:15.008Z,10.18
2023-05-09T23:39:56.545Z,10.22
2023-05-09T23:42:32.195Z,10.29
2023-05-09T23:45:04.881Z,10.35
2023-05-09T23:47:33.055Z,10.38
2023-05-09T23:50:01.352Z,10.40
2023-05-09T23:52:36.057Z,10.42
2023-05-09T23:55:04.462Z,10.39
2023-05-09T23:57:34.395Z,10.34
